sensor_id;sensor_type;location;lat;lon;timestamp;temperature;humidity
86008;SHT30;76587;41.936;25.550;2024-03-25T00:01:27;9.96;72.58
86008;SHT30;76587;41.936;25.550;2024-03-25T00:03:53;10.06;72.09
86008;SHT30;76587;41.936;25.550;2024-03-25T00:06:19;10.17;71.56
86008;SHT30;76587;41.936;25.550;2024-03-25T00:08:45;10.33;71.09
86008;SHT30;76587;41.936;25.550;2024-03-25T00:11:12;10.51;70.18
86008;SHT30;76587;41.936;25.550;2024-03-25T00:13:38;10.63;69.80
86008;SHT30;76587;41.936;25.550;2024-03-25T00:16:08;10.72;69.29
86008;SHT30;76587;41.936;25.550;2024-03-25T00:18:33;10.82;68.84
86008;SHT30;76587;41.936;25.550;2024-03-25T00:20:59;10.87;68.77
86008;SHT30;76587;41.936;25.550;2024-03-25T00:23:24;10.91;68.32
86008;SHT30;76587;41.936;25.550;2024-03-25T00:25:50;11.02;67.79
86008;SHT30;76587;41.936;25.550;2024-03-25T00:28:15;11.18;67.20
86008;SHT30;76587;41.936;25.550;2024-03-25T00:30:43;11.22;67.15
86008;SHT30;76587;41.936;25.550;2024-03-25T00:33:09;11.19;67.24
86008;SHT30;76587;41.936;25.550;2024-03-25T00:35:36;11.25;67.11
86008;SHT30;76587;41.936;25.550;2024-03-25T00:38:04;11.31;66.98
86008;SHT30;76587;41.936;25.550;2024-03-25T00:40:30;11.28;66.79
86008;SHT30;76587;41.936;25.550;2024-03-25T00:42:56;11.29;66.94
86008;SHT30;76587;41.936;25.550;2024-03-25T00:45:21;11.32;66.91
86008;SHT30;76587;41.936;25.550;2024-03-25T00:47:46;11.36;66.63
86008;SHT30;76587;41.936;25.550;2024-03-25T00:50:12;11.38;66.57
86008;SHT30;76587;41.936;25.550;2024-03-25T00:52:37;11.36;66.37
86008;SHT30;76587;41.936;25.550;2024-03-25T00:55:03;11.38;66.74
86008;SHT30;76587;41.936;25.550;2024-03-25T00:57:28;11.35;67.05
86008;SHT30;76587;41.936;25.550;2024-03-25T00:59:55;11.42;66.71
86008;SHT30;76587;41.936;25.550;2024-03-25T01:02:20;11.39;66.45
86008;SHT30;76587;41.936;25.550;2024-03-25T01:04:46;11.44;66.38
86008;SHT30;76587;41.936;25.550;2024-03-25T01:07:12;11.40;66.25
86008;SHT30;76587;41.936;25.550;2024-03-25T01:09:37;11.43;66.08
86008;SHT30;76587;41.936;25.550;2024-03-25T01:12:06;11.42;66.02
86008;SHT30;76587;41.936;25.550;2024-03-25T01:14:31;11.36;66.42
86008;SHT30;76587;41.936;25.550;2024-03-25T01:16:57;11.38;66.13
86008;SHT30;76587;41.936;25.550;2024-03-25T01:19:22;11.39;65.95
86008;SHT30;76587;41.936;25.550;2024-03-25T01:21:48;11.40;66.10
86008;SHT30;76587;41.936;25.550;2024-03-25T01:24:15;11.49;65.94
86008;SHT30;76587;41.936;25.550;2024-03-25T01:26:40;11.56;65.65
86008;SHT30;76587;41.936;25.550;2024-03-25T01:29:06;11.63;65.60
86008;SHT30;76587;41.936;25.550;2024-03-25T01:31:33;11.63;65.57
86008;SHT30;76587;41.936;25.550;2024-03-25T01:33:59;11.75;64.92
86008;SHT30;76587;41.936;25.550;2024-03-25T01:36:25;11.79;64.85
86008;SHT30;76587;41.936;25.550;2024-03-25T01:38:51;11.86;64.39
86008;SHT30;76587;41.936;25.550;2024-03-25T01:41:22;11.96;64.20
86008;SHT30;76587;41.936;25.550;2024-03-25T01:43:48;12.00;64.20
86008;SHT30;76587;41.936;25.550;2024-03-25T01:46:14;12.06;64.08
86008;SHT30;76587;41.936;25.550;2024-03-25T01:48:41;12.16;63.41
86008;SHT30;76587;41.936;25.550;2024-03-25T01:51:07;12.23;63.25
86008;SHT30;76587;41.936;25.550;2024-03-25T01:53:33;12.28;63.00
86008;SHT30;76587;41.936;25.550;2024-03-25T01:55:59;12.34;62.75
86008;SHT30;76587;41.936;25.550;2024-03-25T01:58:25;12.33;62.75
86008;SHT30;76587;41.936;25.550;2024-03-25T02:00:55;12.40;62.38
86008;SHT30;76587;41.936;25.550;2024-03-25T02:03:21;12.38;62.46
86008;SHT30;76587;41.936;25.550;2024-03-25T02:05:50;12.47;62.02
86008;SHT30;76587;41.936;25.550;2024-03-25T02:08:18;12.42;62.16
86008;SHT30;76587;41.936;25.550;2024-03-25T02:10:44;12.40;62.42
86008;SHT30;76587;41.936;25.550;2024-03-25T02:13:14;12.41;62.37
86008;SHT30;76587;41.936;25.550;2024-03-25T02:15:43;12.36;62.30
86008;SHT30;76587;41.936;25.550;2024-03-25T02:18:08;12.40;62.36
86008;SHT30;76587;41.936;25.550;2024-03-25T02:20:33;12.45;62.29
86008;SHT30;76587;41.936;25.550;2024-03-25T02:22:59;12.44;62.54
86008;SHT30;76587;41.936;25.550;2024-03-25T02:25:24;12.42;63.94
86008;SHT30;76587;41.936;25.550;2024-03-25T02:27:50;12.23;65.15
86008;SHT30;76587;41.936;25.550;2024-03-25T02:30:15;11.85;65.20
86008;SHT30;76587;41.936;25.550;2024-03-25T02:32:41;11.47;66.62
86008;SHT30;76587;41.936;25.550;2024-03-25T02:35:10;11.09;68.02
86008;SHT30;76587;41.936;25.550;2024-03-25T02:37:38;10.82;69.30
86008;SHT30;76587;41.936;25.550;2024-03-25T02:40:05;10.71;70.11
86008;SHT30;76587;41.936;25.550;2024-03-25T02:42:32;10.58;71.06
86008;SHT30;76587;41.936;25.550;2024-03-25T02:44:58;10.37;72.03
86008;SHT30;76587;41.936;25.550;2024-03-25T02:47:24;10.20;72.76
86008;SHT30;76587;41.936;25.550;2024-03-25T02:49:57;10.07;73.06
86008;SHT30;76587;41.936;25.550;2024-03-25T02:52:30;9.99;73.43
86008;SHT30;76587;41.936;25.550;2024-03-25T02:54:56;9.97;73.30
86008;SHT30;76587;41.936;25.550;2024-03-25T02:57:21;9.97;72.82
86008;SHT30;76587;41.936;25.550;2024-03-25T02:59:47;9.87;72.25
86008;SHT30;76587;41.936;25.550;2024-03-25T03:02:12;9.87;72.11
86008;SHT30;76587;41.936;25.550;2024-03-25T03:04:38;9.78;71.86
86008;SHT30;76587;41.936;25.550;2024-03-25T03:07:03;9.68;71.59
86008;SHT30;76587;41.936;25.550;2024-03-25T03:09:29;9.62;71.65
86008;SHT30;76587;41.936;25.550;2024-03-25T03:11:55;9.60;71.83
86008;SHT30;76587;41.936;25.550;2024-03-25T03:14:20;9.55;71.99
86008;SHT30;76587;41.936;25.550;2024-03-25T03:16:46;9.55;71.90
86008;SHT30;76587;41.936;25.550;2024-03-25T03:19:14;9.56;72.08
86008;SHT30;76587;41.936;25.550;2024-03-25T03:21:40;9.55;72.09
86008;SHT30;76587;41.936;25.550;2024-03-25T03:24:05;9.49;72.21
86008;SHT30;76587;41.936;25.550;2024-03-25T03:26:31;9.46;72.37
86008;SHT30;76587;41.936;25.550;2024-03-25T03:28:57;9.45;72.21
86008;SHT30;76587;41.936;25.550;2024-03-25T03:31:22;9.48;71.81
86008;SHT30;76587;41.936;25.550;2024-03-25T03:33:51;9.48;71.56
86008;SHT30;76587;41.936;25.550;2024-03-25T03:36:18;9.42;71.00
86008;SHT30;76587;41.936;25.550;2024-03-25T03:38:44;9.39;70.51
86008;SHT30;76587;41.936;25.550;2024-03-25T03:41:10;9.38;70.39
86008;SHT30;76587;41.936;25.550;2024-03-25T03:43:36;9.31;69.88
86008;SHT30;76587;41.936;25.550;2024-03-25T03:46:01;9.29;69.40
86008;SHT30;76587;41.936;25.550;2024-03-25T03:48:27;9.28;69.29
86008;SHT30;76587;41.936;25.550;2024-03-25T03:50:53;9.29;68.99
86008;SHT30;76587;41.936;25.550;2024-03-25T03:53:18;9.32;68.78
86008;SHT30;76587;41.936;25.550;2024-03-25T03:55:57;9.29;68.79
86008;SHT30;76587;41.936;25.550;2024-03-25T03:58:24;9.29;68.78
86008;SHT30;76587;41.936;25.550;2024-03-25T04:00:50;9.28;68.93
86008;SHT30;76587;41.936;25.550;2024-03-25T04:03:16;9.19;69.27
86008;SHT30;76587;41.936;25.550;2024-03-25T04:05:41;9.18;69.80
86008;SHT30;76587;41.936;25.550;2024-03-25T04:08:07;9.18;70.46
86008;SHT30;76587;41.936;25.550;2024-03-25T04:10:33;9.16;71.67
86008;SHT30;76587;41.936;25.550;2024-03-25T04:12:59;9.08;72.59
86008;SHT30;76587;41.936;25.550;2024-03-25T04:15:24;9.01;73.42
86008;SHT30;76587;41.936;25.550;2024-03-25T04:17:51;8.97;73.60
86008;SHT30;76587;41.936;25.550;2024-03-25T04:20:17;8.91;74.42
86008;SHT30;76587;41.936;25.550;2024-03-25T04:22:43;8.87;75.18
86008;SHT30;76587;41.936;25.550;2024-03-25T04:25:09;8.85;75.37
86008;SHT30;76587;41.936;25.550;2024-03-25T04:27:41;8.82;74.69
86008;SHT30;76587;41.936;25.550;2024-03-25T04:30:16;8.78;75.34
86008;SHT30;76587;41.936;25.550;2024-03-25T04:32:42;8.78;74.17
86008;SHT30;76587;41.936;25.550;2024-03-25T04:35:11;8.78;74.53
86008;SHT30;76587;41.936;25.550;2024-03-25T04:37:36;8.81;75.22
86008;SHT30;76587;41.936;25.550;2024-03-25T04:40:02;8.80;76.54
86008;SHT30;76587;41.936;25.550;2024-03-25T04:42:28;8.75;77.23
86008;SHT30;76587;41.936;25.550;2024-03-25T04:44:54;8.70;77.25
86008;SHT30;76587;41.936;25.550;2024-03-25T04:47:19;8.65;79.17
86008;SHT30;76587;41.936;25.550;2024-03-25T04:49:45;8.57;79.44
86008;SHT30;76587;41.936;25.550;2024-03-25T04:52:11;8.50;79.52
86008;SHT30;76587;41.936;25.550;2024-03-25T04:54:42;8.44;79.59
86008;SHT30;76587;41.936;25.550;2024-03-25T04:57:08;8.33;79.85
86008;SHT30;76587;41.936;25.550;2024-03-25T04:59:33;8.32;79.60
86008;SHT30;76587;41.936;25.550;2024-03-25T05:01:59;8.27;78.93
86008;SHT30;76587;41.936;25.550;2024-03-25T05:04:24;8.25;79.10
86008;SHT30;76587;41.936;25.550;2024-03-25T05:06:53;8.23;78.20
86008;SHT30;76587;41.936;25.550;2024-03-25T05:09:19;8.23;78.41
86008;SHT30;76587;41.936;25.550;2024-03-25T05:11:45;8.23;77.99
86008;SHT30;76587;41.936;25.550;2024-03-25T05:14:10;8.26;77.58
86008;SHT30;76587;41.936;25.550;2024-03-25T05:16:36;8.32;76.63
86008;SHT30;76587;41.936;25.550;2024-03-25T05:19:04;8.37;76.77
86008;SHT30;76587;41.936;25.550;2024-03-25T05:21:31;8.46;76.50
86008;SHT30;76587;41.936;25.550;2024-03-25T05:23:56;8.51;75.79
86008;SHT30;76587;41.936;25.550;2024-03-25T05:26:24;8.56;75.09
86008;SHT30;76587;41.936;25.550;2024-03-25T05:28:54;8.65;74.90
86008;SHT30;76587;41.936;25.550;2024-03-25T05:31:19;8.71;73.83
86008;SHT30;76587;41.936;25.550;2024-03-25T05:33:45;8.75;72.92
86008;SHT30;76587;41.936;25.550;2024-03-25T05:36:11;8.78;72.09
86008;SHT30;76587;41.936;25.550;2024-03-25T05:38:36;8.81;70.83
86008;SHT30;76587;41.936;25.550;2024-03-25T05:41:01;8.82;69.80
86008;SHT30;76587;41.936;25.550;2024-03-25T05:43:27;8.92;69.10
86008;SHT30;76587;41.936;25.550;2024-03-25T05:45:56;8.98;67.53
86008;SHT30;76587;41.936;25.550;2024-03-25T05:48:24;9.11;67.47
86008;SHT30;76587;41.936;25.550;2024-03-25T05:51:04;9.21;65.88
86008;SHT30;76587;41.936;25.550;2024-03-25T05:53:35;9.31;65.88
86008;SHT30;76587;41.936;25.550;2024-03-25T05:56:03;9.38;65.07
86008;SHT30;76587;41.936;25.550;2024-03-25T05:58:31;9.45;64.97
86008;SHT30;76587;41.936;25.550;2024-03-25T06:00:57;9.53;65.46
86008;SHT30;76587;41.936;25.550;2024-03-25T06:03:22;9.68;64.33
86008;SHT30;76587;41.936;25.550;2024-03-25T06:05:48;9.76;63.74
86008;SHT30;76587;41.936;25.550;2024-03-25T06:08:15;9.82;63.70
86008;SHT30;76587;41.936;25.550;2024-03-25T06:10:46;9.87;62.98
86008;SHT30;76587;41.936;25.550;2024-03-25T06:13:12;9.94;62.58
86008;SHT30;76587;41.936;25.550;2024-03-25T06:15:45;10.00;61.77
86008;SHT30;76587;41.936;25.550;2024-03-25T06:18:11;10.10;62.18
86008;SHT30;76587;41.936;25.550;2024-03-25T06:20:36;10.29;60.63
86008;SHT30;76587;41.936;25.550;2024-03-25T06:23:02;10.37;60.61
86008;SHT30;76587;41.936;25.550;2024-03-25T06:25:27;10.45;59.98
86008;SHT30;76587;41.936;25.550;2024-03-25T06:27:54;10.53;59.72
86008;SHT30;76587;41.936;25.550;2024-03-25T06:30:19;10.68;59.72
86008;SHT30;76587;41.936;25.550;2024-03-25T06:33:03;10.78;59.39
86008;SHT30;76587;41.936;25.550;2024-03-25T06:35:47;10.95;57.91
86008;SHT30;76587;41.936;25.550;2024-03-25T06:38:13;10.95;58.48
86008;SHT30;76587;41.936;25.550;2024-03-25T06:40:38;10.79;58.52
86008;SHT30;76587;41.936;25.550;2024-03-25T06:43:04;10.68;58.01
86008;SHT30;76587;41.936;25.550;2024-03-25T06:45:30;10.54;58.28
86008;SHT30;76587;41.936;25.550;2024-03-25T06:47:55;10.38;59.71
86008;SHT30;76587;41.936;25.550;2024-03-25T06:50:21;10.34;59.55
86008;SHT30;76587;41.936;25.550;2024-03-25T06:52:47;10.34;59.90
86008;SHT30;76587;41.936;25.550;2024-03-25T06:55:12;10.30;59.28
86008;SHT30;76587;41.936;25.550;2024-03-25T06:57:37;10.40;59.17
86008;SHT30;76587;41.936;25.550;2024-03-25T07:00:04;10.54;58.43
86008;SHT30;76587;41.936;25.550;2024-03-25T07:02:38;10.84;58.27
86008;SHT30;76587;41.936;25.550;2024-03-25T07:05:03;11.49;56.45
86008;SHT30;76587;41.936;25.550;2024-03-25T07:07:29;13.01;52.64
86008;SHT30;76587;41.936;25.550;2024-03-25T07:09:54;13.58;50.74
86008;SHT30;76587;41.936;25.550;2024-03-25T07:12:20;14.28;47.32
86008;SHT30;76587;41.936;25.550;2024-03-25T07:14:45;14.67;45.13
86008;SHT30;76587;41.936;25.550;2024-03-25T07:17:10;14.20;46.34
86008;SHT30;76587;41.936;25.550;2024-03-25T07:19:36;14.89;44.34
86008;SHT30;76587;41.936;25.550;2024-03-25T07:22:01;15.06;43.12
86008;SHT30;76587;41.936;25.550;2024-03-25T07:24:32;14.41;44.33
86008;SHT30;76587;41.936;25.550;2024-03-25T07:26:57;13.93;45.84
86008;SHT30;76587;41.936;25.550;2024-03-25T07:29:23;13.30;46.96
86008;SHT30;76587;41.936;25.550;2024-03-25T07:31:49;12.96;48.62
86008;SHT30;76587;41.936;25.550;2024-03-25T07:34:15;12.85;48.62
86008;SHT30;76587;41.936;25.550;2024-03-25T07:36:40;12.47;48.89
86008;SHT30;76587;41.936;25.550;2024-03-25T07:39:06;12.36;49.95
86008;SHT30;76587;41.936;25.550;2024-03-25T07:41:31;12.51;50.10
86008;SHT30;76587;41.936;25.550;2024-03-25T07:43:59;12.55;49.74
86008;SHT30;76587;41.936;25.550;2024-03-25T07:46:27;12.78;48.84
86008;SHT30;76587;41.936;25.550;2024-03-25T07:48:53;12.84;49.49
86008;SHT30;76587;41.936;25.550;2024-03-25T07:51:18;13.02;49.10
86008;SHT30;76587;41.936;25.550;2024-03-25T07:53:44;13.34;48.55
86008;SHT30;76587;41.936;25.550;2024-03-25T07:56:09;13.59;47.35
86008;SHT30;76587;41.936;25.550;2024-03-25T07:58:34;14.42;45.64
86008;SHT30;76587;41.936;25.550;2024-03-25T08:01:00;15.59;44.10
86008;SHT30;76587;41.936;25.550;2024-03-25T08:03:27;16.07;41.77
86008;SHT30;76587;41.936;25.550;2024-03-25T08:05:53;15.74;41.50
86008;SHT30;76587;41.936;25.550;2024-03-25T08:08:18;15.28;41.91
86008;SHT30;76587;41.936;25.550;2024-03-25T08:10:50;15.18;42.36
86008;SHT30;76587;41.936;25.550;2024-03-25T08:13:17;14.87;42.77
86008;SHT30;76587;41.936;25.550;2024-03-25T08:15:45;14.92;43.30
86008;SHT30;76587;41.936;25.550;2024-03-25T08:18:10;14.93;43.04
86008;SHT30;76587;41.936;25.550;2024-03-25T08:20:36;15.86;41.31
86008;SHT30;76587;41.936;25.550;2024-03-25T08:23:01;15.33;42.21
86008;SHT30;76587;41.936;25.550;2024-03-25T08:25:27;15.19;42.08
86008;SHT30;76587;41.936;25.550;2024-03-25T08:27:52;16.18;39.84
86008;SHT30;76587;41.936;25.550;2024-03-25T08:30:18;17.94;35.81
86008;SHT30;76587;41.936;25.550;2024-03-25T08:32:46;19.46;33.45
86008;SHT30;76587;41.936;25.550;2024-03-25T08:35:12;19.71;33.19
86008;SHT30;76587;41.936;25.550;2024-03-25T08:37:38;19.77;32.92
86008;SHT30;76587;41.936;25.550;2024-03-25T08:40:11;19.74;32.85
86008;SHT30;76587;41.936;25.550;2024-03-25T08:42:36;19.59;33.50
86008;SHT30;76587;41.936;25.550;2024-03-25T08:45:02;19.74;32.94
86008;SHT30;76587;41.936;25.550;2024-03-25T08:47:28;21.20;30.98
86008;SHT30;76587;41.936;25.550;2024-03-25T08:49:56;21.23;30.16
86008;SHT30;76587;41.936;25.550;2024-03-25T08:52:23;20.27;30.20
86008;SHT30;76587;41.936;25.550;2024-03-25T08:54:49;19.27;32.08
86008;SHT30;76587;41.936;25.550;2024-03-25T08:57:14;19.33;34.83
86008;SHT30;76587;41.936;25.550;2024-03-25T08:59:40;19.47;34.25
86008;SHT30;76587;41.936;25.550;2024-03-25T09:02:06;19.86;31.23
86008;SHT30;76587;41.936;25.550;2024-03-25T09:04:33;19.42;33.07
86008;SHT30;76587;41.936;25.550;2024-03-25T09:06:58;19.18;34.67
86008;SHT30;76587;41.936;25.550;2024-03-25T09:09:24;18.54;34.15
86008;SHT30;76587;41.936;25.550;2024-03-25T09:12:08;17.49;34.28
86008;SHT30;76587;41.936;25.550;2024-03-25T09:14:33;17.04;34.62
86008;SHT30;76587;41.936;25.550;2024-03-25T09:17:01;16.67;35.08
86008;SHT30;76587;41.936;25.550;2024-03-25T09:19:29;16.58;35.40
86008;SHT30;76587;41.936;25.550;2024-03-25T09:21:58;16.78;35.38
86008;SHT30;76587;41.936;25.550;2024-03-25T09:24:23;17.25;34.47
86008;SHT30;76587;41.936;25.550;2024-03-25T09:26:50;17.67;33.28
86008;SHT30;76587;41.936;25.550;2024-03-25T09:29:15;18.11;32.77
86008;SHT30;76587;41.936;25.550;2024-03-25T09:31:41;18.91;31.49
86008;SHT30;76587;41.936;25.550;2024-03-25T09:34:06;19.69;30.20
86008;SHT30;76587;41.936;25.550;2024-03-25T09:36:32;20.88;28.35
86008;SHT30;76587;41.936;25.550;2024-03-25T09:38:57;22.27;26.89
86008;SHT30;76587;41.936;25.550;2024-03-25T09:41:23;23.20;25.65
86008;SHT30;76587;41.936;25.550;2024-03-25T09:43:54;24.24;24.39
86008;SHT30;76587;41.936;25.550;2024-03-25T09:46:23;25.16;23.30
86008;SHT30;76587;41.936;25.550;2024-03-25T09:48:52;26.44;22.35
86008;SHT30;76587;41.936;25.550;2024-03-25T09:51:18;27.43;21.25
86008;SHT30;76587;41.936;25.550;2024-03-25T09:53:47;26.91;20.88
86008;SHT30;76587;41.936;25.550;2024-03-25T09:56:13;25.60;21.78
86008;SHT30;76587;41.936;25.550;2024-03-25T09:58:39;23.66;23.62
86008;SHT30;76587;41.936;25.550;2024-03-25T10:01:05;22.28;25.12
86008;SHT30;76587;41.936;25.550;2024-03-25T10:03:32;21.82;26.04
86008;SHT30;76587;41.936;25.550;2024-03-25T10:05:57;20.75;27.47
86008;SHT30;76587;41.936;25.550;2024-03-25T10:08:23;20.17;28.54
86008;SHT30;76587;41.936;25.550;2024-03-25T10:10:51;19.62;29.59
86008;SHT30;76587;41.936;25.550;2024-03-25T10:13:17;19.11;29.67
86008;SHT30;76587;41.936;25.550;2024-03-25T10:15:42;18.54;30.04
86008;SHT30;76587;41.936;25.550;2024-03-25T10:18:11;18.10;30.80
86008;SHT30;76587;41.936;25.550;2024-03-25T10:20:37;18.01;31.05
86008;SHT30;76587;41.936;25.550;2024-03-25T10:23:03;18.44;30.34
86008;SHT30;76587;41.936;25.550;2024-03-25T10:25:30;18.76;29.93
86008;SHT30;76587;41.936;25.550;2024-03-25T10:27:57;20.03;27.66
86008;SHT30;76587;41.936;25.550;2024-03-25T10:30:23;19.71;27.33
86008;SHT30;76587;41.936;25.550;2024-03-25T10:32:59;20.32;27.05
86008;SHT30;76587;41.936;25.550;2024-03-25T10:35:30;21.50;25.69
86008;SHT30;76587;41.936;25.550;2024-03-25T10:38:00;22.18;24.56
86008;SHT30;76587;41.936;25.550;2024-03-25T10:40:27;23.33;23.64
86008;SHT30;76587;41.936;25.550;2024-03-25T10:43:03;24.07;23.10
86008;SHT30;76587;41.936;25.550;2024-03-25T10:45:30;24.68;22.66
86008;SHT30;76587;41.936;25.550;2024-03-25T10:48:02;25.14;21.71
86008;SHT30;76587;41.936;25.550;2024-03-25T10:50:29;24.37;22.07
86008;SHT30;76587;41.936;25.550;2024-03-25T10:52:57;24.61;22.38
86008;SHT30;76587;41.936;25.550;2024-03-25T10:55:24;24.54;21.47
86008;SHT30;76587;41.936;25.550;2024-03-25T10:57:50;24.99;21.60
86008;SHT30;76587;41.936;25.550;2024-03-25T11:00:19;24.69;21.70
86008;SHT30;76587;41.936;25.550;2024-03-25T11:02:45;24.41;21.62
86008;SHT30;76587;41.936;25.550;2024-03-25T11:05:11;24.57;22.02
86008;SHT30;76587;41.936;25.550;2024-03-25T11:07:40;23.73;23.30
86008;SHT30;76587;41.936;25.550;2024-03-25T11:10:07;22.52;23.43
86008;SHT30;76587;41.936;25.550;2024-03-25T11:12:37;21.38;25.20
86008;SHT30;76587;41.936;25.550;2024-03-25T11:15:04;21.02;25.29
86008;SHT30;76587;41.936;25.550;2024-03-25T11:17:32;20.75;26.26
86008;SHT30;76587;41.936;25.550;2024-03-25T11:20:11;21.05;25.89
86008;SHT30;76587;41.936;25.550;2024-03-25T11:22:53;20.79;25.37
86008;SHT30;76587;41.936;25.550;2024-03-25T11:25:20;19.94;26.38
86008;SHT30;76587;41.936;25.550;2024-03-25T11:27:47;19.81;26.21
86008;SHT30;76587;41.936;25.550;2024-03-25T11:30:16;19.46;25.68
86008;SHT30;76587;41.936;25.550;2024-03-25T11:33:02;19.43;26.63
86008;SHT30;76587;41.936;25.550;2024-03-25T11:35:30;19.50;25.79
86008;SHT30;76587;41.936;25.550;2024-03-25T11:37:55;19.26;26.31
86008;SHT30;76587;41.936;25.550;2024-03-25T11:40:21;18.82;27.76
86008;SHT30;76587;41.936;25.550;2024-03-25T11:42:47;18.71;27.39
86008;SHT30;76587;41.936;25.550;2024-03-25T11:45:17;18.40;27.12
86008;SHT30;76587;41.936;25.550;2024-03-25T11:47:44;18.30;27.04
86008;SHT30;76587;41.936;25.550;2024-03-25T11:50:14;18.04;28.07
86008;SHT30;76587;41.936;25.550;2024-03-25T11:52:40;17.90;28.28
86008;SHT30;76587;41.936;25.550;2024-03-25T11:55:09;17.72;27.35
86008;SHT30;76587;41.936;25.550;2024-03-25T11:57:38;17.28;27.85
86008;SHT30;76587;41.936;25.550;2024-03-25T12:00:04;17.19;28.21
86008;SHT30;76587;41.936;25.550;2024-03-25T12:02:31;17.16;27.50
86008;SHT30;76587;41.936;25.550;2024-03-25T12:04:57;17.05;27.92
86008;SHT30;76587;41.936;25.550;2024-03-25T12:07:22;16.78;27.78
86008;SHT30;76587;41.936;25.550;2024-03-25T12:09:48;16.68;28.06
86008;SHT30;76587;41.936;25.550;2024-03-25T12:12:32;16.51;29.30
86008;SHT30;76587;41.936;25.550;2024-03-25T12:14:58;16.41;29.35
86008;SHT30;76587;41.936;25.550;2024-03-25T12:17:24;16.17;29.28
86008;SHT30;76587;41.936;25.550;2024-03-25T12:20:06;16.06;29.39
86008;SHT30;76587;41.936;25.550;2024-03-25T12:22:35;16.16;28.90
86008;SHT30;76587;41.936;25.550;2024-03-25T12:25:05;16.17;29.87
86008;SHT30;76587;41.936;25.550;2024-03-25T12:27:36;16.22;29.03
86008;SHT30;76587;41.936;25.550;2024-03-25T12:30:07;16.18;27.86
86008;SHT30;76587;41.936;25.550;2024-03-25T12:32:43;16.04;26.87
86008;SHT30;76587;41.936;25.550;2024-03-25T12:37:40;15.65;27.05
86008;SHT30;76587;41.936;25.550;2024-03-25T12:40:07;15.56;27.81
86008;SHT30;76587;41.936;25.550;2024-03-25T12:42:35;15.70;27.78
86008;SHT30;76587;41.936;25.550;2024-03-25T12:45:06;15.83;27.41
86008;SHT30;76587;41.936;25.550;2024-03-25T12:47:33;15.96;27.77
86008;SHT30;76587;41.936;25.550;2024-03-25T12:49:58;16.06;27.65
86008;SHT30;76587;41.936;25.550;2024-03-25T12:52:24;16.13;27.79
86008;SHT30;76587;41.936;25.550;2024-03-25T12:54:50;16.24;27.68
86008;SHT30;76587;41.936;25.550;2024-03-25T12:57:15;16.32;28.06
86008;SHT30;76587;41.936;25.550;2024-03-25T12:59:41;16.58;29.06
86008;SHT30;76587;41.936;25.550;2024-03-25T13:02:11;16.79;27.87
86008;SHT30;76587;41.936;25.550;2024-03-25T13:04:37;16.86;27.93
86008;SHT30;76587;41.936;25.550;2024-03-25T13:07:06;16.86;28.00
86008;SHT30;76587;41.936;25.550;2024-03-25T13:09:31;16.95;28.70
86008;SHT30;76587;41.936;25.550;2024-03-25T13:11:57;16.95;28.37
86008;SHT30;76587;41.936;25.550;2024-03-25T13:14:23;16.92;28.13
86008;SHT30;76587;41.936;25.550;2024-03-25T13:16:51;16.67;28.46
86008;SHT30;76587;41.936;25.550;2024-03-25T13:19:17;16.52;28.99
86008;SHT30;76587;41.936;25.550;2024-03-25T13:21:44;16.50;29.66
86008;SHT30;76587;41.936;25.550;2024-03-25T13:24:10;16.41;29.81
86008;SHT30;76587;41.936;25.550;2024-03-25T13:26:35;16.27;30.02
86008;SHT30;76587;41.936;25.550;2024-03-25T13:29:02;16.30;29.13
86008;SHT30;76587;41.936;25.550;2024-03-25T13:31:27;16.30;29.11
86008;SHT30;76587;41.936;25.550;2024-03-25T13:33:53;16.37;28.85
86008;SHT30;76587;41.936;25.550;2024-03-25T13:36:18;16.41;28.96
86008;SHT30;76587;41.936;25.550;2024-03-25T13:38:44;16.37;28.04
86008;SHT30;76587;41.936;25.550;2024-03-25T13:41:13;16.25;28.63
86008;SHT30;76587;41.936;25.550;2024-03-25T13:43:44;16.20;28.93
86008;SHT30;76587;41.936;25.550;2024-03-25T13:46:10;16.13;29.15
86008;SHT30;76587;41.936;25.550;2024-03-25T13:48:37;15.94;29.78
86008;SHT30;76587;41.936;25.550;2024-03-25T13:51:03;16.00;29.70
86008;SHT30;76587;41.936;25.550;2024-03-25T13:53:29;16.04;29.46
86008;SHT30;76587;41.936;25.550;2024-03-25T13:55:57;15.93;29.64
86008;SHT30;76587;41.936;25.550;2024-03-25T13:58:23;15.74;29.62
86008;SHT30;76587;41.936;25.550;2024-03-25T14:00:48;15.65;29.76
86008;SHT30;76587;41.936;25.550;2024-03-25T14:03:14;15.59;30.78
86008;SHT30;76587;41.936;25.550;2024-03-25T14:05:41;15.57;31.32
86008;SHT30;76587;41.936;25.550;2024-03-25T14:08:06;15.55;31.70
86008;SHT30;76587;41.936;25.550;2024-03-25T14:10:32;15.47;31.84
86008;SHT30;76587;41.936;25.550;2024-03-25T14:12:57;15.40;32.00
86008;SHT30;76587;41.936;25.550;2024-03-25T14:15:22;15.31;31.09
86008;SHT30;76587;41.936;25.550;2024-03-25T14:17:48;15.23;30.46
86008;SHT30;76587;41.936;25.550;2024-03-25T14:20:13;15.11;30.95
86008;SHT30;76587;41.936;25.550;2024-03-25T14:22:39;15.08;31.00
86008;SHT30;76587;41.936;25.550;2024-03-25T14:25:05;14.99;31.39
86008;SHT30;76587;41.936;25.550;2024-03-25T14:27:33;14.91;31.13
86008;SHT30;76587;41.936;25.550;2024-03-25T14:29:58;14.95;30.87
86008;SHT30;76587;41.936;25.550;2024-03-25T14:32:23;14.89;31.02
86008;SHT30;76587;41.936;25.550;2024-03-25T14:34:49;14.81;32.37
86008;SHT30;76587;41.936;25.550;2024-03-25T14:37:15;14.75;32.51
86008;SHT30;76587;41.936;25.550;2024-03-25T14:39:41;14.61;32.40
86008;SHT30;76587;41.936;25.550;2024-03-25T14:42:10;14.58;34.15
86008;SHT30;76587;41.936;25.550;2024-03-25T14:44:36;14.47;33.96
86008;SHT30;76587;41.936;25.550;2024-03-25T14:47:03;14.37;34.06
86008;SHT30;76587;41.936;25.550;2024-03-25T14:49:28;14.23;34.51
86008;SHT30;76587;41.936;25.550;2024-03-25T14:51:56;14.13;35.16
86008;SHT30;76587;41.936;25.550;2024-03-25T14:54:22;14.04;35.04
86008;SHT30;76587;41.936;25.550;2024-03-25T14:56:47;13.84;35.11
86008;SHT30;76587;41.936;25.550;2024-03-25T14:59:13;13.77;35.11
86008;SHT30;76587;41.936;25.550;2024-03-25T15:01:39;13.63;35.72
86008;SHT30;76587;41.936;25.550;2024-03-25T15:04:04;13.52;36.07
86008;SHT30;76587;41.936;25.550;2024-03-25T15:06:31;13.43;36.46
86008;SHT30;76587;41.936;25.550;2024-03-25T15:08:58;13.42;36.27
86008;SHT30;76587;41.936;25.550;2024-03-25T15:11:24;13.29;36.24
86008;SHT30;76587;41.936;25.550;2024-03-25T15:13:53;13.28;35.38
86008;SHT30;76587;41.936;25.550;2024-03-25T15:16:19;13.29;34.80
86008;SHT30;76587;41.936;25.550;2024-03-25T15:18:44;13.20;34.66
86008;SHT30;76587;41.936;25.550;2024-03-25T15:21:10;13.26;34.68